Time;durP1;ratioP1;P1;durP2;ratioP2;P2;SDS_P1;SDS_P2;PMS_P1;PMS_P2;Temp;Humidity;BMP_temperature;BMP_pressure;BME280_temperature;BME280_humidity;BME280_pressure;Samples;Min_cycle;Max_cycle;Signal;HPM_P1;HPM_P2
2023/01/04 00:01:05;;;;;;;9.35;3.10;;;7.70;99.90;;;;;;5030171;28;20543;-64
2023/01/04 00:03:31;;;;;;;7.25;3.25;;;7.70;99.90;;;;;;5031281;28;20693;-64
2023/01/04 00:05:58;;;;;;;6.38;2.95;;;7.70;99.90;;;;;;5029271;28;20034;-62
2023/01/04 00:08:24;;;;;;;10.27;3.20;;;7.70;99.90;;;;;;5027221;28;20120;-63
2023/01/04 00:10:50;;;;;;;15.43;3.30;;;7.60;99.90;;;;;;5030910;28;20037;-63
2023/01/04 00:13:15;;;;;;;8.73;3.95;;;7.70;99.90;;;;;;5028162;28;20041;-63
2023/01/04 00:15:41;;;;;;;9.18;3.60;;;7.70;99.90;;;;;;5031187;28;20069;-63
2023/01/04 00:18:07;;;;;;;4.93;3.38;;;7.70;99.90;;;;;;5040548;28;20482;-63
2023/01/04 00:20:32;;;;;;;7.18;2.80;;;7.80;99.90;;;;;;5030392;28;20038;-63
2023/01/04 00:22:58;;;;;;;8.43;3.28;;;7.80;99.90;;;;;;5031244;28;20084;-63
2023/01/04 00:25:24;;;;;;;11.63;3.75;;;7.80;99.90;;;;;;5026753;28;20116;-62
2023/01/04 00:27:50;;;;;;;11.68;3.33;;;7.70;99.90;;;;;;5026759;28;20378;-64
2023/01/04 00:30:16;;;;;;;9.13;3.33;;;7.80;99.90;;;;;;5030313;28;20044;-62
2023/01/04 00:33:00;;;;;;;7.75;3.30;;;7.80;99.90;;;;;;5026644;28;20044;-63
2023/01/04 00:35:26;;;;;;;8.30;2.97;;;7.80;99.90;;;;;;5037385;28;20413;-63
2023/01/04 00:37:51;;;;;;;8.95;3.25;;;7.80;99.90;;;;;;5043672;28;20404;-63
2023/01/04 00:40:17;;;;;;;7.85;3.20;;;7.80;99.90;;;;;;5033371;28;20405;-62
2023/01/04 00:42:42;;;;;;;9.45;3.05;;;7.80;99.90;;;;;;5030137;28;20044;-63
2023/01/04 00:45:09;;;;;;;7.05;3.25;;;7.70;99.90;;;;;;5026593;28;20552;-64
2023/01/04 00:47:34;;;;;;;12.18;4.10;;;7.70;99.90;;;;;;5032970;28;20413;-63
2023/01/04 00:50:00;;;;;;;5.35;3.13;;;7.60;99.90;;;;;;5027155;28;20045;-63
2023/01/04 00:52:25;;;;;;;7.78;3.10;;;7.40;99.90;;;;;;5020385;28;20386;-63
2023/01/04 00:54:51;;;;;;;6.85;3.42;;;7.30;99.90;;;;;;5025788;28;22831;-63
2023/01/04 00:57:16;;;;;;;8.80;3.70;;;7.30;99.90;;;;;;5004584;28;20140;-63
2023/01/04 00:59:42;;;;;;;9.52;3.55;;;7.20;99.90;;;;;;5012773;28;20488;-65
2023/01/04 01:02:08;;;;;;;8.88;3.72;;;7.20;99.90;;;;;;5015450;28;20029;-64
2023/01/04 01:04:33;;;;;;;8.32;4.00;;;7.10;99.90;;;;;;5017488;28;20045;-63
2023/01/04 01:06:59;;;;;;;10.60;3.75;;;7.10;99.90;;;;;;5009574;28;20034;-63
2023/01/04 01:09:25;;;;;;;10.60;3.67;;;7.10;99.90;;;;;;5021825;28;20045;-64
2023/01/04 01:11:52;;;;;;;5.95;3.20;;;7.10;99.90;;;;;;5009057;28;20136;-63
2023/01/04 01:14:24;;;;;;;11.02;3.47;;;7.10;99.90;;;;;;5007758;28;20026;-64
2023/01/04 01:16:50;;;;;;;9.10;3.17;;;7.10;99.90;;;;;;5006455;28;20045;-64
2023/01/04 01:19:15;;;;;;;8.68;3.58;;;7.20;99.90;;;;;;5008895;28;20132;-64
2023/01/04 01:21:41;;;;;;;8.57;3.80;;;7.10;99.90;;;;;;5024474;28;20029;-64
2023/01/04 01:24:15;;;;;;;7.63;3.50;;;7.20;99.90;;;;;;5023905;28;20079;-65
2023/01/04 01:26:40;;;;;;;9.30;3.40;;;7.20;99.90;;;;;;5018479;28;20045;-64
2023/01/04 01:29:06;;;;;;;6.63;3.20;;;7.20;99.90;;;;;;5023927;28;20053;-64
2023/01/04 01:31:31;;;;;;;10.63;3.58;;;7.20;99.90;;;;;;5025734;28;20037;-63
2023/01/04 01:33:57;;;;;;;11.23;3.53;;;7.20;99.90;;;;;;5026611;28;20080;-63
2023/01/04 01:36:25;;;;;;;9.68;3.33;;;7.20;99.90;;;;;;5024880;28;20622;-63
2023/01/04 01:38:51;;;;;;;9.20;3.72;;;7.20;99.90;;;;;;5022429;28;20053;-63
2023/01/04 01:41:29;;;;;;;12.68;4.45;;;7.20;99.90;;;;;;5007796;28;20052;-64
2023/01/04 01:44:11;;;;;;;6.78;3.35;;;7.10;99.90;;;;;;5020625;28;20091;-64
2023/01/04 01:46:44;;;;;;;9.77;4.07;;;7.10;99.90;;;;;;5023751;28;20131;-63
2023/01/04 01:49:24;;;;;;;10.98;4.28;;;7.10;99.90;;;;;;5030936;28;20091;-67
2023/01/04 01:51:51;;;;;;;9.35;4.07;;;7.10;99.90;;;;;;5035443;28;20410;-63
2023/01/04 01:54:27;;;;;;;11.63;4.30;;;7.10;99.90;;;;;;5023194;28;20034;-63
2023/01/04 01:56:56;;;;;;;8.10;4.00;;;7.10;99.90;;;;;;5030707;28;20413;-66
2023/01/04 01:59:23;;;;;;;12.77;4.28;;;7.10;99.90;;;;;;5009300;28;20049;-64
2023/01/04 02:01:48;;;;;;;10.80;4.15;;;7.20;99.90;;;;;;5018280;28;20492;-65
2023/01/04 02:04:15;;;;;;;12.07;4.10;;;7.20;99.90;;;;;;5008178;28;20041;-67
2023/01/04 02:06:47;;;;;;;9.55;4.28;;;7.10;99.90;;;;;;5014596;28;20452;-64
2023/01/04 02:09:14;;;;;;;8.57;4.30;;;7.20;99.90;;;;;;5004307;28;20029;-65
2023/01/04 02:11:40;;;;;;;7.45;4.22;;;7.20;99.90;;;;;;5011270;28;20044;-63
2023/01/04 02:17:00;;;;;;;10.27;4.70;;;7.20;99.90;;;;;;5012442;28;20413;-64
2023/01/04 02:20:02;;;;;;;11.32;4.47;;;7.20;99.90;;;;;;5023189;28;20067;-65
2023/01/04 02:22:41;;;;;;;6.03;4.10;;;7.30;99.90;;;;;;5022891;28;20112;-64
2023/01/04 02:25:35;;;;;;;8.30;5.22;;;7.30;99.90;;;;;;5019028;28;20046;-64
2023/01/04 02:28:32;;;;;;;10.05;4.18;;;7.30;99.90;;;;;;5017985;28;20051;-65
2023/01/04 02:31:16;;;;;;;12.65;4.38;;;7.30;99.90;;;;;;5020799;28;20392;-65
2023/01/04 02:33:54;;;;;;;11.05;4.45;;;7.30;99.90;;;;;;5020966;28;20042;-64
2023/01/04 02:36:51;;;;;;;10.70;4.07;;;7.40;99.90;;;;;;5022299;28;20500;-63
2023/01/04 02:39:42;;;;;;;8.90;4.40;;;7.40;99.90;;;;;;5013851;28;20088;-65
2023/01/04 02:45:31;;;;;;;9.20;3.83;;;7.40;99.90;;;;;;5015755;28;20045;-66
2023/01/04 02:51:23;;;;;;;8.60;3.92;;;7.50;99.90;;;;;;5020681;28;20500;-65
2023/01/04 02:53:49;;;;;;;8.32;3.72;;;7.50;99.90;;;;;;5022370;28;20037;-65
2023/01/04 02:56:18;;;;;;;4.78;2.97;;;7.60;99.90;;;;;;5017093;28;20050;-66
2023/01/04 02:59:02;;;;;;;7.32;3.85;;;7.60;99.90;;;;;;5012000;28;20045;-64
2023/01/04 03:08:19;;;;;;;4.90;3.22;;;7.60;99.90;;;;;;5004954;28;20069;-64
2023/01/04 03:14:04;;;;;;;4.93;3.08;;;7.70;99.90;;;;;;4991029;28;20108;-64
2023/01/04 03:16:31;;;;;;;5.93;3.20;;;7.70;99.90;;;;;;5013195;28;20654;-65
2023/01/04 03:19:03;;;;;;;8.32;3.55;;;7.80;99.90;;;;;;5015387;28;20045;-63
2023/01/04 03:21:31;;;;;;;6.68;3.47;;;7.80;99.90;;;;;;5020292;28;20532;-65
2023/01/04 03:35:40;;;;;;;6.88;3.42;;;7.80;99.90;;;;;;5021403;28;20049;-64
2023/01/04 03:50:27;;;;;;;6.75;3.67;;;8.30;99.90;;;;;;5021387;28;20052;-64
2023/01/04 03:52:55;;;;;;;7.20;3.95;;;8.20;99.90;;;;;;5018617;28;20114;-63
2023/01/04 03:55:22;;;;;;;5.28;3.33;;;8.30;99.90;;;;;;5021226;28;20038;-63
2023/01/04 03:57:49;;;;;;;11.10;3.97;;;8.50;99.90;;;;;;5025053;28;20034;-64
2023/01/04 04:00:17;;;;;;;6.97;3.90;;;8.30;99.90;;;;;;5021463;28;20037;-63
2023/01/04 04:02:46;;;;;;;8.63;4.10;;;8.50;99.90;;;;;;5006288;28;20478;-63
2023/01/04 04:10:48;;;;;;;7.32;4.07;;;8.60;99.90;;;;;;5005020;28;20049;-63
2023/01/04 04:13:13;;;;;;;6.75;3.55;;;8.60;99.90;;;;;;5003264;28;20050;-64
2023/01/04 04:15:39;;;;;;;10.23;3.70;;;8.70;99.90;;;;;;5013992;28;20026;-64
2023/01/04 04:18:05;;;;;;;6.47;3.97;;;8.70;99.90;;;;;;5008145;28;20044;-64
2023/01/04 04:20:30;;;;;;;6.20;3.90;;;8.70;99.90;;;;;;5021266;28;20042;-63
2023/01/04 04:22:56;;;;;;;6.72;3.53;;;8.90;99.90;;;;;;5021130;28;20148;-64
2023/01/04 04:25:21;;;;;;;9.02;4.00;;;8.80;99.90;;;;;;5008013;28;20599;-65
2023/01/04 04:27:47;;;;;;;8.45;3.78;;;8.90;99.90;;;;;;5017152;28;20488;-65
2023/01/04 04:30:13;;;;;;;7.03;4.05;;;8.80;99.90;;;;;;5014937;28;20057;-65
2023/01/04 04:32:38;;;;;;;6.82;3.60;;;8.90;99.90;;;;;;5025467;28;20049;-64
2023/01/04 04:35:04;;;;;;;5.88;4.05;;;9.10;99.90;;;;;;5020381;28;20073;-64
2023/01/04 04:37:30;;;;;;;6.97;4.10;;;9.10;99.90;;;;;;5013123;28;20057;-63
2023/01/04 04:39:57;;;;;;;7.68;3.92;;;9.00;99.90;;;;;;5024336;28;20053;-64
2023/01/04 04:42:22;;;;;;;5.95;3.45;;;9.10;99.90;;;;;;5022118;28;20144;-64
2023/01/04 04:44:48;;;;;;;5.22;3.67;;;9.10;99.90;;;;;;5018660;28;20109;-64
2023/01/04 04:47:14;;;;;;;6.38;3.75;;;9.20;99.90;;;;;;5026160;28;20103;-64
2023/01/04 04:49:39;;;;;;;7.68;4.15;;;9.00;99.90;;;;;;5020437;28;20371;-65
2023/01/04 04:52:05;;;;;;;6.07;3.60;;;9.00;99.90;;;;;;5021941;28;20103;-63
2023/01/04 04:54:31;;;;;;;6.22;3.58;;;9.10;99.90;;;;;;5013982;28;20073;-63
2023/01/04 04:56:56;;;;;;;5.93;3.55;;;9.30;99.90;;;;;;5026802;28;20055;-65
2023/01/04 04:59:22;;;;;;;6.78;3.83;;;9.20;99.90;;;;;;5024353;28;20045;-66
2023/01/04 05:01:47;;;;;;;8.05;4.28;;;9.20;99.90;;;;;;5014447;28;20042;-64
2023/01/04 05:04:15;;;;;;;6.88;4.25;;;9.40;99.90;;;;;;5005002;28;20037;-65
2023/01/04 05:06:42;;;;;;;6.85;3.35;;;9.10;99.90;;;;;;5009761;28;20041;-64
2023/01/04 05:09:09;;;;;;;5.93;3.30;;;9.20;99.90;;;;;;5008989;28;20108;-65
2023/01/04 05:14:20;;;;;;;8.35;4.28;;;9.30;99.90;;;;;;5013067;28;20119;-63
2023/01/04 05:16:46;;;;;;;9.70;4.80;;;9.30;99.90;;;;;;5007931;28;20054;-64
2023/01/04 05:19:11;;;;;;;8.30;4.75;;;9.50;99.90;;;;;;5014864;28;20041;-63
2023/01/04 05:21:37;;;;;;;8.85;4.93;;;9.50;99.90;;;;;;5005665;28;20034;-63
2023/01/04 05:24:02;;;;;;;9.23;5.00;;;9.50;99.90;;;;;;5007197;28;20492;-64
2023/01/04 05:26:28;;;;;;;8.98;5.72;;;9.50;99.90;;;;;;5008997;28;20469;-66
2023/01/04 05:28:54;;;;;;;7.45;4.90;;;9.60;99.90;;;;;;5015038;28;20033;-64
2023/01/04 05:31:19;;;;;;;11.73;5.80;;;9.60;99.90;;;;;;5008102;28;20049;-64
2023/01/04 05:33:45;;;;;;;12.38;5.93;;;9.70;99.90;;;;;;5016036;28;20051;-64
2023/01/04 05:36:10;;;;;;;10.77;5.80;;;9.60;99.90;;;;;;5017932;28;20048;-67
2023/01/04 05:38:36;;;;;;;12.40;5.88;;;9.60;99.90;;;;;;5025058;28;20052;-64
2023/01/04 05:41:01;;;;;;;12.10;6.07;;;9.70;99.90;;;;;;5025359;28;20386;-65
2023/01/04 05:43:27;;;;;;;11.52;5.72;;;9.80;99.90;;;;;;5021780;28;20685;-63
2023/01/04 05:45:54;;;;;;;12.05;6.20;;;9.90;99.90;;;;;;5020849;28;20037;-63
2023/01/04 05:48:21;;;;;;;12.65;6.68;;;9.90;99.90;;;;;;5031278;28;20034;-63
2023/01/04 05:50:47;;;;;;;14.60;7.22;;;9.90;99.90;;;;;;5029586;28;20171;-64
2023/01/04 05:53:16;;;;;;;13.70;6.60;;;9.90;99.90;;;;;;5018363;28;20120;-64
2023/01/04 05:55:42;;;;;;;10.35;6.15;;;9.80;99.90;;;;;;5027482;28;20057;-64
2023/01/04 05:58:08;;;;;;;12.15;6.68;;;9.80;99.90;;;;;;5025275;28;20489;-64
2023/01/04 06:00:34;;;;;;;11.20;6.32;;;9.80;99.90;;;;;;5019190;28;20092;-66
2023/01/04 06:02:59;;;;;;;13.95;7.35;;;9.80;99.90;;;;;;5025956;28;20428;-63
2023/01/04 06:05:25;;;;;;;16.50;7.47;;;10.00;99.90;;;;;;5027250;28;20075;-65
2023/01/04 06:07:51;;;;;;;14.20;7.55;;;10.00;99.90;;;;;;5019373;28;20041;-63
2023/01/04 06:10:17;;;;;;;17.02;7.40;;;9.90;99.90;;;;;;5015480;28;20385;-64
2023/01/04 06:12:44;;;;;;;12.27;6.90;;;10.10;99.90;;;;;;5026060;28;20037;-64
2023/01/04 06:15:10;;;;;;;15.25;7.25;;;10.00;99.90;;;;;;5026953;28;20477;-63
2023/01/04 06:17:37;;;;;;;14.30;6.80;;;10.10;99.90;;;;;;5021476;28;20042;-64
2023/01/04 06:20:04;;;;;;;14.55;6.90;;;10.20;99.90;;;;;;5021965;28;20052;-63
2023/01/04 06:22:31;;;;;;;14.85;7.20;;;10.10;99.90;;;;;;5025807;28;20043;-63
2023/01/04 06:24:57;;;;;;;12.00;6.53;;;10.10;99.90;;;;;;5022688;28;20045;-63
2023/01/04 06:27:23;;;;;;;17.92;7.10;;;10.10;99.90;;;;;;5021994;28;20099;-63
2023/01/04 06:29:48;;;;;;;18.83;7.25;;;10.10;99.90;;;;;;5023013;28;20037;-63
2023/01/04 06:32:14;;;;;;;13.95;6.75;;;10.00;99.90;;;;;;5026014;28;20133;-64
2023/01/04 06:34:39;;;;;;;13.85;6.60;;;10.20;99.90;;;;;;5018880;28;20127;-62
2023/01/04 06:37:05;;;;;;;11.90;6.35;;;10.30;99.90;;;;;;5019337;28;20481;-63
2023/01/04 06:39:31;;;;;;;11.52;5.85;;;10.20;99.90;;;;;;5012826;28;20450;-63
2023/01/04 06:41:56;;;;;;;12.52;6.28;;;10.30;99.90;;;;;;5021585;28;20038;-63
2023/01/04 06:44:22;;;;;;;11.55;5.35;;;10.20;99.90;;;;;;5022543;28;20381;-64
2023/01/04 06:46:47;;;;;;;12.68;5.63;;;10.20;99.90;;;;;;5027559;28;20437;-63
2023/01/04 06:49:13;;;;;;;12.38;5.03;;;10.30;99.90;;;;;;5021020;28;20048;-63
2023/01/04 06:51:39;;;;;;;11.15;4.63;;;10.30;99.90;;;;;;5014824;28;20038;-64
2023/01/04 06:54:04;;;;;;;7.75;4.53;;;10.30;99.90;;;;;;5023109;28;20095;-62
2023/01/04 06:56:31;;;;;;;11.23;4.53;;;10.30;99.90;;;;;;5023285;28;20450;-64
2023/01/04 06:58:57;;;;;;;12.13;4.70;;;10.30;99.90;;;;;;5020909;28;20045;-64
2023/01/04 07:01:22;;;;;;;8.65;4.28;;;10.30;99.90;;;;;;5013902;28;20046;-63
2023/01/04 07:03:48;;;;;;;7.47;3.70;;;10.30;99.90;;;;;;5012938;28;20054;-64
2023/01/04 07:06:13;;;;;;;9.68;4.82;;;10.40;99.90;;;;;;5008595;28;20087;-64
2023/01/04 07:08:39;;;;;;;8.85;4.15;;;10.30;99.90;;;;;;5005630;28;20038;-63
2023/01/04 07:11:05;;;;;;;7.93;4.35;;;10.30;99.90;;;;;;5004592;28;20125;-64
2023/01/04 07:13:30;;;;;;;7.30;3.90;;;10.40;99.90;;;;;;5013383;28;20061;-64
2023/01/04 07:15:56;;;;;;;4.70;3.22;;;10.30;99.90;;;;;;5007151;28;20056;-63
2023/01/04 07:18:21;;;;;;;8.35;4.00;;;10.30;99.90;;;;;;5021276;28;20077;-63
2023/01/04 07:20:47;;;;;;;6.97;3.65;;;10.30;99.90;;;;;;5005552;28;20042;-65
2023/01/04 07:23:12;;;;;;;7.38;3.75;;;10.30;99.90;;;;;;5004028;28;20034;-65
2023/01/04 07:25:38;;;;;;;8.77;3.35;;;10.30;99.90;;;;;;5006332;28;20084;-64
2023/01/04 07:28:04;;;;;;;6.25;3.60;;;10.40;99.90;;;;;;5006588;28;20038;-65
2023/01/04 07:30:29;;;;;;;6.35;3.50;;;10.30;99.90;;;;;;5005072;28;20048;-66
2023/01/04 07:32:56;;;;;;;6.68;3.70;;;10.30;99.90;;;;;;5008080;28;20053;-63
2023/01/04 07:35:22;;;;;;;5.32;3.17;;;10.30;99.90;;;;;;5022017;28;20029;-64
2023/01/04 07:37:47;;;;;;;5.13;3.35;;;10.30;99.90;;;;;;5019427;28;20037;-63
2023/01/04 07:40:13;;;;;;;6.90;3.08;;;10.40;99.90;;;;;;5024543;28;20041;-64
2023/01/04 07:42:39;;;;;;;6.65;3.30;;;10.40;99.90;;;;;;5025612;28;20461;-65
2023/01/04 07:45:05;;;;;;;7.90;3.28;;;10.40;99.90;;;;;;5018478;28;20389;-64
2023/01/04 07:47:31;;;;;;;7.07;3.25;;;10.40;99.90;;;;;;5023589;28;20100;-64
2023/01/04 07:49:56;;;;;;;3.85;2.72;;;10.50;99.90;;;;;;5025181;28;20045;-62
2023/01/04 07:52:22;;;;;;;4.72;2.88;;;10.40;99.90;;;;;;5027760;28;20116;-63
2023/01/04 07:54:48;;;;;;;7.10;2.80;;;10.50;99.90;;;;;;5025527;28;20617;-63
2023/01/04 07:57:13;;;;;;;5.20;2.70;;;10.40;99.90;;;;;;5025816;28;20049;-62
2023/01/04 07:59:39;;;;;;;5.85;2.85;;;10.40;99.90;;;;;;5027419;28;20077;-63
2023/01/04 08:02:04;;;;;;;4.28;2.88;;;10.40;99.90;;;;;;5026265;28;20042;-61
2023/01/04 08:04:30;;;;;;;4.13;2.92;;;10.50;99.90;;;;;;5026463;28;20095;-64
2023/01/04 08:06:55;;;;;;;5.72;3.10;;;10.50;99.90;;;;;;5023005;28;20045;-63
2023/01/04 08:09:21;;;;;;;5.53;3.33;;;10.40;99.90;;;;;;5021864;28;20063;-63
2023/01/04 08:11:47;;;;;;;7.00;3.53;;;10.50;99.90;;;;;;5026074;28;20072;-63
2023/01/04 08:14:12;;;;;;;5.57;2.67;;;10.50;99.90;;;;;;5026833;28;20048;-62
2023/01/04 08:16:41;;;;;;;5.10;2.70;;;10.50;99.90;;;;;;5028966;28;20449;-63
2023/01/04 08:19:17;;;;;;;5.93;2.80;;;10.50;99.90;;;;;;5027078;28;20148;-64
2023/01/04 08:21:44;;;;;;;6.55;3.22;;;10.50;99.90;;;;;;5023550;28;20465;-63
2023/01/04 08:24:11;;;;;;;4.82;3.15;;;10.50;99.90;;;;;;5026436;28;20068;-63
2023/01/04 08:26:37;;;;;;;6.28;3.08;;;10.60;99.90;;;;;;5021393;28;20037;-63
2023/01/04 08:29:02;;;;;;;7.80;3.38;;;10.60;99.90;;;;;;5020465;28;20478;-63
2023/01/04 08:31:30;;;;;;;6.63;3.42;;;10.60;99.90;;;;;;5021032;28;20124;-63
2023/01/04 08:33:57;;;;;;;7.75;3.80;;;10.60;99.90;;;;;;5030392;28;20045;-62
2023/01/04 08:36:26;;;;;;;8.13;4.13;;;10.60;99.90;;;;;;5030267;28;20045;-63
2023/01/04 08:38:56;;;;;;;6.68;3.72;;;10.50;99.90;;;;;;5028727;28;20045;-62
2023/01/04 08:41:21;;;;;;;6.47;3.57;;;10.60;99.90;;;;;;5028539;28;20037;-63
2023/01/04 08:43:47;;;;;;;11.60;4.43;;;10.60;99.90;;;;;;5026113;28;20041;-63
2023/01/04 08:46:13;;;;;;;10.35;3.70;;;10.60;99.90;;;;;;5028121;28;20076;-62
2023/01/04 08:48:40;;;;;;;6.75;3.20;;;10.60;99.90;;;;;;5023532;28;20045;-64
2023/01/04 08:51:08;;;;;;;8.80;3.75;;;10.60;99.90;;;;;;5028595;28;20061;-62
2023/01/04 08:53:34;;;;;;;9.00;3.70;;;10.60;99.90;;;;;;5029871;28;20098;-62
2023/01/04 08:55:59;;;;;;;7.97;3.47;;;10.70;99.90;;;;;;5032133;28;20053;-62
2023/01/04 08:58:26;;;;;;;5.93;3.10;;;10.70;99.90;;;;;;5034436;28;20045;-63
2023/01/04 09:00:52;;;;;;;5.38;3.22;;;10.70;99.90;;;;;;5028201;28;20662;-62
2023/01/04 09:03:18;;;;;;;5.43;3.15;;;10.70;99.90;;;;;;5041425;28;20040;-64
2023/01/04 09:05:44;;;;;;;5.68;3.38;;;10.70;99.90;;;;;;5053392;28;20048;-63
2023/01/04 09:08:10;;;;;;;5.68;3.15;;;10.70;99.90;;;;;;5046424;28;20064;-63
2023/01/04 09:10:37;;;;;;;5.05;2.90;;;10.70;99.90;;;;;;5031263;28;20500;-64
2023/01/04 09:13:03;;;;;;;5.20;2.80;;;10.80;99.90;;;;;;5031857;28;20041;-65
2023/01/04 09:15:29;;;;;;;5.03;2.80;;;10.70;99.90;;;;;;5031837;28;20478;-63
2023/01/04 09:17:54;;;;;;;5.68;2.75;;;10.70;99.90;;;;;;5037958;28;20048;-64
2023/01/04 09:20:20;;;;;;;4.80;2.45;;;10.70;99.90;;;;;;5029492;28;20045;-62
2023/01/04 09:22:45;;;;;;;5.60;2.53;;;10.80;99.90;;;;;;5030265;28;20049;-64
2023/01/04 09:25:11;;;;;;;4.55;2.40;;;10.80;99.90;;;;;;5029565;28;20041;-63
2023/01/04 09:27:38;;;;;;;5.18;2.17;;;10.80;99.90;;;;;;5031360;28;20037;-63
2023/01/04 09:30:05;;;;;;;4.95;2.30;;;10.80;99.90;;;;;;5027514;28;20034;-63
2023/01/04 09:32:30;;;;;;;3.72;1.90;;;10.80;99.90;;;;;;5025900;28;20033;-63
2023/01/04 09:34:56;;;;;;;2.50;1.63;;;10.80;99.90;;;;;;5027439;28;20175;-63
2023/01/04 09:37:21;;;;;;;2.97;1.73;;;10.80;99.90;;;;;;5029552;28;20045;-63
2023/01/04 09:39:47;;;;;;;3.75;1.75;;;10.70;99.90;;;;;;5024429;28;20041;-64
2023/01/04 09:42:31;;;;;;;4.47;2.00;;;10.70;99.90;;;;;;5029503;28;20064;-63
2023/01/04 09:45:20;;;;;;;3.65;1.80;;;10.80;99.90;;;;;;5025914;28;20401;-63
2023/01/04 09:47:54;;;;;;;2.75;1.52;;;10.80;99.90;;;;;;5027356;28;20037;-62
2023/01/04 09:50:36;;;;;;;4.07;1.73;;;10.80;99.90;;;;;;5024627;28;20034;-62
2023/01/04 09:53:20;;;;;;;2.78;1.45;;;10.80;99.90;;;;;;5029016;28;20045;-63
2023/01/04 09:55:49;;;;;;;3.15;1.70;;;10.80;99.90;;;;;;5022395;28;20049;-63
2023/01/04 09:58:33;;;;;;;3.17;1.77;;;10.80;99.90;;;;;;5030686;28;20107;-63
2023/01/04 10:01:41;;;;;;;4.05;1.60;;;10.70;99.90;;;;;;5034038;28;20053;-63
2023/01/04 10:04:44;;;;;;;2.30;1.45;;;10.90;99.90;;;;;;4988303;28;20073;-61
2023/01/04 10:07:20;;;;;;;2.10;1.55;;;10.80;99.90;;;;;;5017368;28;20044;-63
2023/01/04 10:09:45;;;;;;;2.75;1.60;;;10.80;99.90;;;;;;5014030;28;20497;-62
2023/01/04 10:12:27;;;;;;;5.70;1.83;;;10.90;99.90;;;;;;5032598;28;20117;-62
2023/01/04 10:15:01;;;;;;;3.10;1.90;;;10.90;99.90;;;;;;5029836;28;20038;-62
2023/01/04 10:17:45;;;;;;;2.95;1.88;;;10.80;99.90;;;;;;5029534;28;20068;-61
2023/01/04 10:20:35;;;;;;;4.00;2.00;;;10.90;99.90;;;;;;5027479;28;20116;-61
2023/01/04 10:23:31;;;;;;;4.90;2.53;;;10.80;99.90;;;;;;5034471;28;20047;-62
2023/01/04 10:26:06;;;;;;;5.55;2.30;;;10.90;99.90;;;;;;5029490;28;20044;-61
2023/01/04 10:28:47;;;;;;;8.23;3.50;;;10.90;99.90;;;;;;5029299;28;20083;-62
2023/01/04 10:31:15;;;;;;;;;;;10.90;99.90;;;;;;5028766;28;20041;-61
2023/01/04 10:33:47;;;;;;;9.63;3.35;;;10.90;99.90;;;;;;5032701;28;19963;-61
2023/01/04 10:36:21;;;;;;;8.98;3.53;;;11.00;99.90;;;;;;5024957;28;20042;-61
2023/01/04 10:39:04;;;;;;;11.98;3.65;;;11.00;99.90;;;;;;5031099;28;20049;-61
2023/01/04 10:41:39;;;;;;;14.90;4.03;;;11.00;99.90;;;;;;5027734;28;20771;-62
2023/01/04 10:44:19;;;;;;;8.77;3.70;;;11.10;99.90;;;;;;5032513;28;20041;-61
2023/01/04 10:47:04;;;;;;;13.27;4.00;;;11.00;99.90;;;;;;5027453;28;20756;-61
2023/01/04 10:49:45;;;;;;;11.68;4.18;;;11.00;99.90;;;;;;5031376;28;20052;-61
2023/01/04 10:52:14;;;;;;;14.35;3.88;;;11.10;99.90;;;;;;5025974;28;20409;-61
2023/01/04 10:54:50;;;;;;;18.33;4.32;;;11.10;99.90;;;;;;5029632;28;20049;-60
2023/01/04 10:57:25;;;;;;;16.55;4.43;;;11.10;99.90;;;;;;5030918;28;20073;-62
2023/01/04 11:00:17;;;;;;;21.00;4.05;;;11.20;99.90;;;;;;5031761;28;20064;-63
2023/01/04 11:02:49;;;;;;;20.52;4.25;;;11.20;99.90;;;;;;5028205;28;20048;-62
2023/01/04 11:05:21;;;;;;;20.67;4.22;;;11.20;99.90;;;;;;5027306;28;20055;-63
2023/01/04 11:07:58;;;;;;;20.98;4.43;;;11.20;99.90;;;;;;5022435;28;20053;-62
2023/01/04 11:10:35;;;;;;;22.20;4.57;;;11.30;99.90;;;;;;5030124;28;20272;-61
2023/01/04 11:13:00;;;;;;;24.02;4.97;;;11.30;99.90;;;;;;5029399;28;20053;-62
2023/01/04 11:15:27;;;;;;;23.20;4.45;;;11.20;99.90;;;;;;5025203;28;20505;-62
2023/01/04 11:17:53;;;;;;;19.52;4.93;;;11.40;99.90;;;;;;5029500;28;20064;-62
2023/01/04 11:20:18;;;;;;;25.42;4.68;;;11.30;99.90;;;;;;5029655;28;20461;-63
2023/01/04 11:22:54;;;;;;;25.13;5.07;;;11.30;99.90;;;;;;5030600;28;20034;-62
2023/01/04 11:25:22;;;;;;;23.00;4.28;;;11.40;99.90;;;;;;5021400;28;20037;-62
2023/01/04 11:28:04;;;;;;;21.58;4.18;;;11.30;99.90;;;;;;5022791;28;20674;-62
2023/01/04 11:30:44;;;;;;;27.13;4.40;;;11.40;99.90;;;;;;5023604;28;20060;-63
2023/01/04 11:33:17;;;;;;;28.10;4.30;;;11.20;99.90;;;;;;5028210;28;20055;-62
2023/01/04 11:35:47;;;;;;;21.70;4.13;;;11.20;99.90;;;;;;5022335;28;20044;-62
2023/01/04 11:38:26;;;;;;;18.42;3.88;;;11.30;99.90;;;;;;5022969;28;20052;-63
2023/01/04 11:41:06;;;;;;;27.92;5.18;;;11.30;99.90;;;;;;5029240;28;20041;-63
2023/01/04 11:43:35;;;;;;;25.23;5.85;;;11.20;99.90;;;;;;5027917;28;20037;-63
2023/01/04 11:46:23;;;;;;;24.23;4.38;;;11.20;99.90;;;;;;5026631;28;20038;-63
2023/01/04 11:48:49;;;;;;;24.95;4.13;;;11.30;99.90;;;;;;5025633;28;20042;-63
2023/01/04 11:51:30;;;;;;;26.33;4.75;;;11.20;99.90;;;;;;5028491;28;20056;-62
2023/01/04 11:54:18;;;;;;;21.17;4.55;;;11.30;99.90;;;;;;5027605;28;20064;-62
2023/01/04 11:57:00;;;;;;;23.50;4.97;;;11.20;99.90;;;;;;5022112;28;20143;-63
2023/01/04 11:59:26;;;;;;;19.08;3.83;;;11.30;99.90;;;;;;5026513;28;20121;-62
2023/01/04 12:02:17;;;;;;;23.92;4.20;;;11.30;99.90;;;;;;5025553;28;20128;-63
2023/01/04 12:04:42;;;;;;;25.05;4.47;;;11.30;99.90;;;;;;5027481;28;20061;-61
2023/01/04 12:07:24;;;;;;;19.17;3.58;;;11.30;99.90;;;;;;5025612;28;20142;-63
2023/01/04 12:09:50;;;;;;;16.70;3.38;;;11.40;99.90;;;;;;5015869;28;20041;-63
2023/01/04 12:12:15;;;;;;;21.05;3.58;;;11.30;99.90;;;;;;5028909;28;20053;-62
2023/01/04 12:14:47;;;;;;;19.63;3.28;;;11.30;99.90;;;;;;5022022;28;20034;-63
2023/01/04 12:17:33;;;;;;;17.35;2.90;;;11.40;99.90;;;;;;5027382;28;20037;-62
2023/01/04 12:20:02;;;;;;;16.83;3.20;;;11.40;99.90;;;;;;5017965;28;20041;-62
2023/01/04 12:22:39;;;;;;;9.45;2.80;;;11.40;99.90;;;;;;5025130;28;20052;-63
2023/01/04 12:25:23;;;;;;;17.23;3.00;;;11.40;99.90;;;;;;5026293;28;20392;-63
2023/01/04 12:27:54;;;;;;;14.73;4.00;;;11.30;99.90;;;;;;5015701;28;20092;-64
2023/01/04 12:30:43;;;;;;;13.35;2.38;;;11.30;99.90;;;;;;5020192;28;20094;-62
2023/01/04 12:33:30;;;;;;;11.50;2.72;;;11.30;99.90;;;;;;5018857;28;20046;-62
2023/01/04 12:36:16;;;;;;;11.60;2.10;;;11.40;99.90;;;;;;5023317;28;20599;-64
2023/01/04 12:38:51;;;;;;;13.85;2.33;;;11.40;99.90;;;;;;5024142;28;20037;-62
2023/01/04 12:42:02;;;;;;;8.38;1.52;;;11.40;99.90;;;;;;5024325;28;20100;-63
2023/01/04 12:44:37;;;;;;;9.73;1.70;;;11.40;99.90;;;;;;5030542;28;20116;-63
2023/01/04 12:50:09;;;;;;;6.13;1.45;;;11.30;99.90;;;;;;5027967;28;20053;-63
2023/01/04 12:52:39;;;;;;;8.75;1.75;;;11.30;99.90;;;;;;5031843;28;20377;-63
2023/01/04 12:55:26;;;;;;;5.43;1.40;;;11.40;99.90;;;;;;5021333;28;20119;-63
2023/01/04 12:57:52;;;;;;;7.38;1.50;;;11.40;99.90;;;;;;5024289;28;20414;-64
2023/01/04 13:00:18;;;;;;;6.00;1.83;;;11.30;99.90;;;;;;5030607;28;20041;-63
2023/01/04 13:02:52;;;;;;;5.07;1.15;;;11.30;99.90;;;;;;5026026;28;20481;-63
2023/01/04 13:05:20;;;;;;;2.88;1.30;;;11.40;99.90;;;;;;5022537;28;20045;-63
2023/01/04 13:07:49;;;;;;;7.20;1.80;;;11.30;99.90;;;;;;5025759;28;20042;-63
2023/01/04 13:10:30;;;;;;;12.73;1.90;;;11.30;99.90;;;;;;5007715;28;20208;-63
2023/01/04 13:13:31;;;;;;;7.22;1.85;;;11.20;99.90;;;;;;4999662;28;21073;-64
2023/01/04 13:16:21;;;;;;;9.90;2.22;;;11.20;99.90;;;;;;5017432;28;20042;-64
2023/01/04 13:18:56;;;;;;;14.82;2.85;;;11.20;99.90;;;;;;5024801;28;20151;-63
2023/01/04 13:21:42;;;;;;;12.32;2.70;;;11.20;99.90;;;;;;5029446;28;20048;-62
2023/01/04 13:24:31;;;;;;;10.88;2.75;;;11.20;99.90;;;;;;5026092;28;20045;-64
2023/01/04 13:27:09;;;;;;;11.82;2.65;;;11.20;99.90;;;;;;5014002;28;20038;-63
2023/01/04 13:29:35;;;;;;;14.75;3.33;;;11.10;99.90;;;;;;5032752;28;20045;-63
2023/01/04 13:32:14;;;;;;;13.77;2.72;;;11.10;99.90;;;;;;5033578;28;20130;-63
2023/01/04 13:34:55;;;;;;;13.38;2.88;;;11.20;99.90;;;;;;5033040;28;20069;-64
2023/01/04 13:37:41;;;;;;;10.10;2.83;;;11.20;99.90;;;;;;5032857;28;20421;-63
2023/01/04 13:40:23;;;;;;;18.25;3.45;;;11.10;99.90;;;;;;5021568;28;20049;-62
2023/01/04 13:43:14;;;;;;;15.55;3.22;;;11.20;99.90;;;;;;5029006;28;20131;-62
2023/01/04 13:45:45;;;;;;;18.05;3.67;;;11.10;99.90;;;;;;5025810;28;20183;-63
2023/01/04 13:48:16;;;;;;;13.82;2.78;;;11.10;99.90;;;;;;5029232;28;20042;-63
2023/01/04 13:50:57;;;;;;;11.70;3.15;;;11.00;99.90;;;;;;5027616;28;20068;-63
2023/01/04 13:53:25;;;;;;;16.25;2.95;;;11.00;99.90;;;;;;5025847;28;20034;-62
2023/01/04 13:55:59;;;;;;;17.48;3.55;;;11.00;99.90;;;;;;5027808;28;20049;-62
2023/01/04 13:58:30;;;;;;;15.90;2.75;;;11.00;99.90;;;;;;5028453;28;20455;-62
2023/01/04 14:01:01;;;;;;;17.67;3.60;;;11.00;99.90;;;;;;5022268;28;20057;-63